sensor_id;sensor_type;location;lat;lon;timestamp;P1;durP1;ratioP1;P2;durP2;ratioP2
63943;SDS011;50121;51.218;7.664;2022-11-15T00:01:48;16.50;;;11.85;;
63943;SDS011;50121;51.218;7.664;2022-11-15T00:04:34;14.82;;;10.93;;
63943;SDS011;50121;51.218;7.664;2022-11-15T00:07:20;13.68;;;10.77;;
63943;SDS011;50121;51.218;7.664;2022-11-15T00:10:24;16.17;;;11.40;;
63943;SDS011;50121;51.218;7.664;2022-11-15T00:13:11;14.90;;;11.00;;
63943;SDS011;50121;51.218;7.664;2022-11-15T00:15:58;13.88;;;11.18;;
63943;SDS011;50121;51.218;7.664;2022-11-15T00:18:44;15.32;;;11.43;;
63943;SDS011;50121;51.218;7.664;2022-11-15T00:21:32;15.70;;;10.95;;
63943;SDS011;50121;51.218;7.664;2022-11-15T00:24:17;18.92;;;12.07;;
63943;SDS011;50121;51.218;7.664;2022-11-15T00:27:04;15.55;;;10.60;;
63943;SDS011;50121;51.218;7.664;2022-11-15T00:29:51;15.50;;;11.40;;
63943;SDS011;50121;51.218;7.664;2022-11-15T00:32:38;18.05;;;12.00;;
63943;SDS011;50121;51.218;7.664;2022-11-15T00:35:24;16.17;;;10.85;;
63943;SDS011;50121;51.218;7.664;2022-11-15T00:38:10;14.48;;;11.35;;
63943;SDS011;50121;51.218;7.664;2022-11-15T00:40:56;15.68;;;11.35;;
63943;SDS011;50121;51.218;7.664;2022-11-15T00:43:42;16.48;;;11.48;;
63943;SDS011;50121;51.218;7.664;2022-11-15T00:46:28;14.40;;;10.38;;
63943;SDS011;50121;51.218;7.664;2022-11-15T00:49:15;18.30;;;11.80;;
63943;SDS011;50121;51.218;7.664;2022-11-15T00:52:01;17.55;;;11.75;;
63943;SDS011;50121;51.218;7.664;2022-11-15T00:54:47;16.70;;;11.55;;
63943;SDS011;50121;51.218;7.664;2022-11-15T00:57:33;17.33;;;12.05;;
63943;SDS011;50121;51.218;7.664;2022-11-15T01:00:19;15.93;;;11.48;;
63943;SDS011;50121;51.218;7.664;2022-11-15T01:03:05;16.10;;;11.75;;
63943;SDS011;50121;51.218;7.664;2022-11-15T01:05:51;16.58;;;12.50;;
63943;SDS011;50121;51.218;7.664;2022-11-15T01:08:38;16.85;;;11.50;;
63943;SDS011;50121;51.218;7.664;2022-11-15T01:11:25;16.77;;;11.85;;
63943;SDS011;50121;51.218;7.664;2022-11-15T01:14:11;16.55;;;12.43;;
63943;SDS011;50121;51.218;7.664;2022-11-15T01:16:57;15.38;;;11.43;;
63943;SDS011;50121;51.218;7.664;2022-11-15T01:19:43;15.63;;;12.25;;
63943;SDS011;50121;51.218;7.664;2022-11-15T01:22:30;19.50;;;12.18;;
63943;SDS011;50121;51.218;7.664;2022-11-15T01:25:16;13.43;;;10.10;;
63943;SDS011;50121;51.218;7.664;2022-11-15T01:28:02;16.25;;;11.65;;
63943;SDS011;50121;51.218;7.664;2022-11-15T01:30:49;16.05;;;11.43;;
63943;SDS011;50121;51.218;7.664;2022-11-15T01:33:35;13.77;;;11.15;;
63943;SDS011;50121;51.218;7.664;2022-11-15T01:36:21;16.73;;;11.45;;
63943;SDS011;50121;51.218;7.664;2022-11-15T01:39:08;16.08;;;12.10;;
63943;SDS011;50121;51.218;7.664;2022-11-15T01:41:55;14.77;;;12.35;;
63943;SDS011;50121;51.218;7.664;2022-11-15T01:44:48;15.50;;;11.68;;
63943;SDS011;50121;51.218;7.664;2022-11-15T01:47:36;17.15;;;12.15;;
63943;SDS011;50121;51.218;7.664;2022-11-15T01:50:27;17.85;;;12.60;;
63943;SDS011;50121;51.218;7.664;2022-11-15T01:53:15;17.48;;;11.48;;
63943;SDS011;50121;51.218;7.664;2022-11-15T01:56:05;16.83;;;12.25;;
63943;SDS011;50121;51.218;7.664;2022-11-15T01:58:53;14.93;;;10.98;;
63943;SDS011;50121;51.218;7.664;2022-11-15T02:01:41;15.93;;;11.68;;
63943;SDS011;50121;51.218;7.664;2022-11-15T02:04:28;14.68;;;11.50;;
63943;SDS011;50121;51.218;7.664;2022-11-15T02:07:15;16.90;;;12.18;;
63943;SDS011;50121;51.218;7.664;2022-11-15T02:10:24;13.43;;;10.73;;
63943;SDS011;50121;51.218;7.664;2022-11-15T02:13:08;13.55;;;10.68;;
63943;SDS011;50121;51.218;7.664;2022-11-15T02:16:18;17.08;;;11.38;;
63943;SDS011;50121;51.218;7.664;2022-11-15T02:19:32;13.30;;;9.85;;
63943;SDS011;50121;51.218;7.664;2022-11-15T02:42:57;11.95;;;9.48;;
63943;SDS011;50121;51.218;7.664;2022-11-15T02:46:09;10.70;;;9.13;;
63943;SDS011;50121;51.218;7.664;2022-11-15T02:48:59;12.98;;;9.20;;
63943;SDS011;50121;51.218;7.664;2022-11-15T02:51:46;9.70;;;8.70;;
63943;SDS011;50121;51.218;7.664;2022-11-15T02:54:33;12.13;;;9.13;;
63943;SDS011;50121;51.218;7.664;2022-11-15T02:57:20;10.40;;;9.10;;
63943;SDS011;50121;51.218;7.664;2022-11-15T03:00:09;10.70;;;9.10;;
63943;SDS011;50121;51.218;7.664;2022-11-15T03:09:05;9.55;;;8.40;;
63943;SDS011;50121;51.218;7.664;2022-11-15T03:11:59;11.07;;;9.68;;
63943;SDS011;50121;51.218;7.664;2022-11-15T03:17:34;10.88;;;8.82;;
63943;SDS011;50121;51.218;7.664;2022-11-15T03:20:22;10.65;;;9.52;;
63943;SDS011;50121;51.218;7.664;2022-11-15T03:23:11;11.98;;;9.23;;
63943;SDS011;50121;51.218;7.664;2022-11-15T03:25:57;11.30;;;10.02;;
63943;SDS011;50121;51.218;7.664;2022-11-15T03:28:46;11.02;;;9.93;;
63943;SDS011;50121;51.218;7.664;2022-11-15T03:31:35;10.93;;;9.50;;
63943;SDS011;50121;51.218;7.664;2022-11-15T03:34:41;12.93;;;9.65;;
63943;SDS011;50121;51.218;7.664;2022-11-15T03:37:31;11.05;;;9.35;;
63943;SDS011;50121;51.218;7.664;2022-11-15T03:40:22;12.27;;;10.18;;
63943;SDS011;50121;51.218;7.664;2022-11-15T03:46:07;12.02;;;10.13;;
63943;SDS011;50121;51.218;7.664;2022-11-15T03:49:09;11.38;;;10.20;;
63943;SDS011;50121;51.218;7.664;2022-11-15T03:51:57;12.77;;;10.73;;
63943;SDS011;50121;51.218;7.664;2022-11-15T03:54:50;12.68;;;10.02;;
63943;SDS011;50121;51.218;7.664;2022-11-15T03:57:36;11.85;;;9.43;;
63943;SDS011;50121;51.218;7.664;2022-11-15T04:00:22;12.30;;;9.23;;
63943;SDS011;50121;51.218;7.664;2022-11-15T04:03:08;11.93;;;9.27;;
63943;SDS011;50121;51.218;7.664;2022-11-15T04:05:54;11.52;;;10.18;;
63943;SDS011;50121;51.218;7.664;2022-11-15T04:08:40;11.98;;;10.60;;
63943;SDS011;50121;51.218;7.664;2022-11-15T04:11:26;12.48;;;10.75;;
63943;SDS011;50121;51.218;7.664;2022-11-15T04:14:12;13.80;;;10.88;;
63943;SDS011;50121;51.218;7.664;2022-11-15T04:16:58;11.68;;;9.85;;
63943;SDS011;50121;51.218;7.664;2022-11-15T04:19:45;13.60;;;11.50;;
63943;SDS011;50121;51.218;7.664;2022-11-15T04:22:51;12.70;;;10.50;;
63943;SDS011;50121;51.218;7.664;2022-11-15T04:25:58;12.15;;;9.95;;
63943;SDS011;50121;51.218;7.664;2022-11-15T04:28:45;12.18;;;9.52;;
63943;SDS011;50121;51.218;7.664;2022-11-15T04:31:50;11.95;;;9.48;;
63943;SDS011;50121;51.218;7.664;2022-11-15T04:34:39;9.70;;;8.73;;
63943;SDS011;50121;51.218;7.664;2022-11-15T04:37:25;10.65;;;8.88;;
63943;SDS011;50121;51.218;7.664;2022-11-15T04:40:12;9.05;;;8.15;;
63943;SDS011;50121;51.218;7.664;2022-11-15T04:42:58;9.18;;;8.27;;
63943;SDS011;50121;51.218;7.664;2022-11-15T04:45:47;10.35;;;8.70;;
63943;SDS011;50121;51.218;7.664;2022-11-15T04:48:33;10.95;;;8.10;;
63943;SDS011;50121;51.218;7.664;2022-11-15T04:51:19;9.82;;;8.60;;
63943;SDS011;50121;51.218;7.664;2022-11-15T04:54:05;10.60;;;8.63;;
63943;SDS011;50121;51.218;7.664;2022-11-15T04:56:51;9.82;;;8.75;;
63943;SDS011;50121;51.218;7.664;2022-11-15T04:59:38;11.73;;;9.13;;
63943;SDS011;50121;51.218;7.664;2022-11-15T05:02:24;10.65;;;8.65;;
63943;SDS011;50121;51.218;7.664;2022-11-15T05:05:30;9.80;;;8.70;;
63943;SDS011;50121;51.218;7.664;2022-11-15T05:08:16;9.38;;;8.05;;
63943;SDS011;50121;51.218;7.664;2022-11-15T05:11:02;11.57;;;9.25;;
63943;SDS011;50121;51.218;7.664;2022-11-15T05:13:49;9.85;;;8.32;;
63943;SDS011;50121;51.218;7.664;2022-11-15T05:16:35;8.73;;;7.72;;
63943;SDS011;50121;51.218;7.664;2022-11-15T05:19:22;10.02;;;9.02;;
63943;SDS011;50121;51.218;7.664;2022-11-15T05:22:08;11.98;;;8.82;;
63943;SDS011;50121;51.218;7.664;2022-11-15T05:24:54;10.38;;;9.18;;
63943;SDS011;50121;51.218;7.664;2022-11-15T05:27:40;9.80;;;8.25;;
63943;SDS011;50121;51.218;7.664;2022-11-15T05:30:27;11.40;;;9.52;;
63943;SDS011;50121;51.218;7.664;2022-11-15T05:33:13;12.00;;;8.73;;
63943;SDS011;50121;51.218;7.664;2022-11-15T05:36:04;11.35;;;7.90;;
63943;SDS011;50121;51.218;7.664;2022-11-15T05:38:50;10.52;;;7.75;;
63943;SDS011;50121;51.218;7.664;2022-11-15T05:41:37;10.15;;;8.23;;
63943;SDS011;50121;51.218;7.664;2022-11-15T05:44:25;11.18;;;7.65;;
63943;SDS011;50121;51.218;7.664;2022-11-15T05:47:12;8.82;;;7.88;;
63943;SDS011;50121;51.218;7.664;2022-11-15T05:49:59;8.55;;;7.40;;
63943;SDS011;50121;51.218;7.664;2022-11-15T05:52:46;8.15;;;6.70;;
63943;SDS011;50121;51.218;7.664;2022-11-15T05:55:33;7.95;;;7.15;;
63943;SDS011;50121;51.218;7.664;2022-11-15T05:58:19;8.32;;;6.80;;
63943;SDS011;50121;51.218;7.664;2022-11-15T06:01:05;8.45;;;6.88;;
63943;SDS011;50121;51.218;7.664;2022-11-15T06:03:52;8.68;;;6.90;;
63943;SDS011;50121;51.218;7.664;2022-11-15T06:06:38;7.47;;;6.75;;
63943;SDS011;50121;51.218;7.664;2022-11-15T06:09:24;7.50;;;6.85;;
63943;SDS011;50121;51.218;7.664;2022-11-15T06:12:10;7.82;;;7.13;;
63943;SDS011;50121;51.218;7.664;2022-11-15T06:14:56;7.60;;;6.90;;
63943;SDS011;50121;51.218;7.664;2022-11-15T06:17:42;7.43;;;6.72;;
63943;SDS011;50121;51.218;7.664;2022-11-15T06:20:29;6.88;;;6.20;;
63943;SDS011;50121;51.218;7.664;2022-11-15T06:23:15;6.43;;;5.82;;
63943;SDS011;50121;51.218;7.664;2022-11-15T06:26:02;7.50;;;6.03;;
63943;SDS011;50121;51.218;7.664;2022-11-15T06:28:49;7.20;;;6.50;;
63943;SDS011;50121;51.218;7.664;2022-11-15T06:31:36;6.30;;;5.80;;
63943;SDS011;50121;51.218;7.664;2022-11-15T06:34:22;8.70;;;6.50;;
63943;SDS011;50121;51.218;7.664;2022-11-15T06:37:08;9.35;;;5.93;;
63943;SDS011;50121;51.218;7.664;2022-11-15T06:39:54;6.70;;;5.97;;
63943;SDS011;50121;51.218;7.664;2022-11-15T06:42:40;7.57;;;6.88;;
63943;SDS011;50121;51.218;7.664;2022-11-15T06:45:26;7.07;;;6.38;;
63943;SDS011;50121;51.218;7.664;2022-11-15T06:48:12;7.30;;;6.70;;
63943;SDS011;50121;51.218;7.664;2022-11-15T06:51:00;7.03;;;6.43;;
63943;SDS011;50121;51.218;7.664;2022-11-15T06:53:46;7.20;;;6.60;;
63943;SDS011;50121;51.218;7.664;2022-11-15T06:56:33;7.93;;;7.15;;
63943;SDS011;50121;51.218;7.664;2022-11-15T06:59:19;7.35;;;6.65;;
63943;SDS011;50121;51.218;7.664;2022-11-15T07:02:05;7.00;;;6.50;;
63943;SDS011;50121;51.218;7.664;2022-11-15T07:04:51;6.38;;;5.88;;
63943;SDS011;50121;51.218;7.664;2022-11-15T07:07:38;6.22;;;5.72;;
63943;SDS011;50121;51.218;7.664;2022-11-15T07:10:24;6.28;;;5.72;;
63943;SDS011;50121;51.218;7.664;2022-11-15T07:13:10;7.25;;;6.65;;
63943;SDS011;50121;51.218;7.664;2022-11-15T07:15:56;5.22;;;4.82;;
63943;SDS011;50121;51.218;7.664;2022-11-15T07:18:42;5.50;;;5.05;;
63943;SDS011;50121;51.218;7.664;2022-11-15T07:21:28;6.20;;;5.50;;
63943;SDS011;50121;51.218;7.664;2022-11-15T07:24:14;6.47;;;4.85;;
63943;SDS011;50121;51.218;7.664;2022-11-15T07:27:00;6.22;;;5.63;;
63943;SDS011;50121;51.218;7.664;2022-11-15T07:29:46;5.70;;;5.20;;
63943;SDS011;50121;51.218;7.664;2022-11-15T07:32:33;5.78;;;5.20;;
63943;SDS011;50121;51.218;7.664;2022-11-15T07:35:19;5.68;;;5.18;;
63943;SDS011;50121;51.218;7.664;2022-11-15T07:38:05;5.80;;;5.00;;
63943;SDS011;50121;51.218;7.664;2022-11-15T07:41:02;5.55;;;5.07;;
63943;SDS011;50121;51.218;7.664;2022-11-15T07:43:51;5.05;;;4.65;;
63943;SDS011;50121;51.218;7.664;2022-11-15T07:46:37;5.30;;;4.80;;
63943;SDS011;50121;51.218;7.664;2022-11-15T07:49:24;4.63;;;4.32;;
63943;SDS011;50121;51.218;7.664;2022-11-15T07:52:10;5.03;;;4.63;;
63943;SDS011;50121;51.218;7.664;2022-11-15T07:54:56;4.90;;;4.50;;
63943;SDS011;50121;51.218;7.664;2022-11-15T07:57:42;5.13;;;4.57;;
63943;SDS011;50121;51.218;7.664;2022-11-15T08:00:28;11.80;;;11.00;;
63943;SDS011;50121;51.218;7.664;2022-11-15T08:03:15;4.47;;;4.07;;
63943;SDS011;50121;51.218;7.664;2022-11-15T08:06:01;4.95;;;4.55;;
63943;SDS011;50121;51.218;7.664;2022-11-15T08:08:47;7.75;;;4.45;;
63943;SDS011;50121;51.218;7.664;2022-11-15T08:11:33;4.68;;;4.38;;
63943;SDS011;50121;51.218;7.664;2022-11-15T08:14:19;5.03;;;4.63;;
63943;SDS011;50121;51.218;7.664;2022-11-15T08:17:06;5.30;;;4.80;;
63943;SDS011;50121;51.218;7.664;2022-11-15T08:19:52;5.30;;;4.90;;
63943;SDS011;50121;51.218;7.664;2022-11-15T08:22:39;6.18;;;5.57;;
63943;SDS011;50121;51.218;7.664;2022-11-15T08:25:25;6.20;;;5.60;;
63943;SDS011;50121;51.218;7.664;2022-11-15T08:28:12;5.72;;;5.28;;
63943;SDS011;50121;51.218;7.664;2022-11-15T08:30:58;5.55;;;5.10;;
63943;SDS011;50121;51.218;7.664;2022-11-15T08:33:45;5.72;;;4.70;;
63943;SDS011;50121;51.218;7.664;2022-11-15T08:36:31;5.90;;;5.40;;
63943;SDS011;50121;51.218;7.664;2022-11-15T08:39:23;6.10;;;5.60;;
63943;SDS011;50121;51.218;7.664;2022-11-15T08:42:09;6.22;;;5.72;;
63943;SDS011;50121;51.218;7.664;2022-11-15T08:44:57;6.47;;;5.47;;
63943;SDS011;50121;51.218;7.664;2022-11-15T08:47:43;6.32;;;5.78;;
63943;SDS011;50121;51.218;7.664;2022-11-15T08:50:31;5.60;;;5.20;;
63943;SDS011;50121;51.218;7.664;2022-11-15T08:53:18;6.32;;;5.90;;
63943;SDS011;50121;51.218;7.664;2022-11-15T08:56:06;7.80;;;6.63;;
63943;SDS011;50121;51.218;7.664;2022-11-15T08:58:53;7.40;;;6.80;;
63943;SDS011;50121;51.218;7.664;2022-11-15T09:01:40;7.35;;;6.75;;
63943;SDS011;50121;51.218;7.664;2022-11-15T09:04:26;7.25;;;6.60;;
63943;SDS011;50121;51.218;7.664;2022-11-15T09:07:13;6.50;;;6.07;;
63943;SDS011;50121;51.218;7.664;2022-11-15T09:09:59;8.00;;;5.90;;
63943;SDS011;50121;51.218;7.664;2022-11-15T09:12:45;7.63;;;5.47;;
63943;SDS011;50121;51.218;7.664;2022-11-15T09:15:33;5.90;;;5.40;;
63943;SDS011;50121;51.218;7.664;2022-11-15T09:18:19;6.82;;;5.60;;
63943;SDS011;50121;51.218;7.664;2022-11-15T09:21:07;6.07;;;5.55;;
63943;SDS011;50121;51.218;7.664;2022-11-15T09:23:53;5.82;;;5.32;;
63943;SDS011;50121;51.218;7.664;2022-11-15T09:26:40;5.88;;;5.38;;
63943;SDS011;50121;51.218;7.664;2022-11-15T09:29:26;6.07;;;4.80;;
63943;SDS011;50121;51.218;7.664;2022-11-15T09:32:12;5.25;;;4.85;;
63943;SDS011;50121;51.218;7.664;2022-11-15T09:34:58;5.22;;;4.72;;
63943;SDS011;50121;51.218;7.664;2022-11-15T09:37:44;6.05;;;5.40;;
63943;SDS011;50121;51.218;7.664;2022-11-15T09:40:31;5.32;;;4.93;;
63943;SDS011;50121;51.218;7.664;2022-11-15T09:49:22;5.53;;;5.05;;
63943;SDS011;50121;51.218;7.664;2022-11-15T09:52:12;6.15;;;5.53;;
63943;SDS011;50121;51.218;7.664;2022-11-15T09:54:41;5.80;;;5.20;;
63943;SDS011;50121;51.218;7.664;2022-11-15T09:57:32;4.50;;;4.20;;
63943;SDS011;50121;51.218;7.664;2022-11-15T10:06:01;5.35;;;4.95;;
63943;SDS011;50121;51.218;7.664;2022-11-15T10:11:17;6.05;;;5.22;;
63943;SDS011;50121;51.218;7.664;2022-11-15T10:14:20;5.65;;;4.65;;
63943;SDS011;50121;51.218;7.664;2022-11-15T10:24:16;5.50;;;5.03;;
63943;SDS011;50121;51.218;7.664;2022-11-15T10:26:46;5.18;;;4.68;;
63943;SDS011;50121;51.218;7.664;2022-11-15T10:29:17;5.13;;;4.78;;
63943;SDS011;50121;51.218;7.664;2022-11-15T10:31:49;5.30;;;4.85;;
63943;SDS011;50121;51.218;7.664;2022-11-15T10:34:21;5.40;;;5.03;;
63943;SDS011;50121;51.218;7.664;2022-11-15T10:36:56;5.97;;;5.57;;
63943;SDS011;50121;51.218;7.664;2022-11-15T10:39:24;5.30;;;4.90;;
63943;SDS011;50121;51.218;7.664;2022-11-15T10:41:51;6.07;;;5.35;;
63943;SDS011;50121;51.218;7.664;2022-11-15T10:44:20;6.07;;;5.05;;
63943;SDS011;50121;51.218;7.664;2022-11-15T10:49:22;5.07;;;4.60;;
63943;SDS011;50121;51.218;7.664;2022-11-15T10:51:57;5.25;;;4.75;;
63943;SDS011;50121;51.218;7.664;2022-11-15T10:56:53;5.20;;;4.80;;
63943;SDS011;50121;51.218;7.664;2022-11-15T10:59:28;4.93;;;4.53;;
63943;SDS011;50121;51.218;7.664;2022-11-15T11:01:59;5.00;;;4.60;;
63943;SDS011;50121;51.218;7.664;2022-11-15T11:04:26;5.25;;;4.85;;
63943;SDS011;50121;51.218;7.664;2022-11-15T11:06:58;5.20;;;4.90;;
63943;SDS011;50121;51.218;7.664;2022-11-15T11:12:00;5.80;;;4.65;;
63943;SDS011;50121;51.218;7.664;2022-11-15T11:14:28;5.82;;;5.32;;
63943;SDS011;50121;51.218;7.664;2022-11-15T11:22:14;5.40;;;5.00;;
63943;SDS011;50121;51.218;7.664;2022-11-15T11:24:45;5.18;;;4.85;;
63943;SDS011;50121;51.218;7.664;2022-11-15T11:34:46;4.80;;;4.47;;
63943;SDS011;50121;51.218;7.664;2022-11-15T11:40:21;4.63;;;4.30;;
63943;SDS011;50121;51.218;7.664;2022-11-15T11:43:13;4.53;;;4.22;;
63943;SDS011;50121;51.218;7.664;2022-11-15T11:51:24;5.57;;;5.10;;
63943;SDS011;50121;51.218;7.664;2022-11-15T11:53:52;4.95;;;4.60;;
63943;SDS011;50121;51.218;7.664;2022-11-15T11:56:43;5.72;;;5.35;;
63943;SDS011;50121;51.218;7.664;2022-11-15T11:59:28;5.15;;;4.85;;
63943;SDS011;50121;51.218;7.664;2022-11-15T12:02:01;4.70;;;4.40;;
63943;SDS011;50121;51.218;7.664;2022-11-15T12:04:42;4.20;;;3.90;;
63943;SDS011;50121;51.218;7.664;2022-11-15T12:07:20;4.30;;;4.00;;
63943;SDS011;50121;51.218;7.664;2022-11-15T12:09:51;5.13;;;4.82;;
63943;SDS011;50121;51.218;7.664;2022-11-15T12:14:55;5.78;;;4.97;;
63943;SDS011;50121;51.218;7.664;2022-11-15T12:17:24;4.90;;;4.60;;
63943;SDS011;50121;51.218;7.664;2022-11-15T12:19:55;7.78;;;4.72;;
63943;SDS011;50121;51.218;7.664;2022-11-15T12:22:41;7.85;;;4.70;;
63943;SDS011;50121;51.218;7.664;2022-11-15T12:27:42;5.85;;;5.32;;
63943;SDS011;50121;51.218;7.664;2022-11-15T12:30:18;5.50;;;5.20;;
63943;SDS011;50121;51.218;7.664;2022-11-15T12:32:51;5.15;;;4.40;;
63943;SDS011;50121;51.218;7.664;2022-11-15T12:35:24;7.00;;;6.53;;
63943;SDS011;50121;51.218;7.664;2022-11-15T12:37:54;16.00;;;14.80;;
63943;SDS011;50121;51.218;7.664;2022-11-15T12:40:25;4.20;;;4.00;;
63943;SDS011;50121;51.218;7.664;2022-11-15T12:47:56;5.13;;;4.00;;
63943;SDS011;50121;51.218;7.664;2022-11-15T12:58:43;5.25;;;4.80;;
63943;SDS011;50121;51.218;7.664;2022-11-15T13:04:21;5.30;;;4.90;;
63943;SDS011;50121;51.218;7.664;2022-11-15T13:06:54;5.10;;;4.80;;
63943;SDS011;50121;51.218;7.664;2022-11-15T13:14:43;4.65;;;4.25;;
63943;SDS011;50121;51.218;7.664;2022-11-15T13:20:02;5.40;;;5.00;;
63943;SDS011;50121;51.218;7.664;2022-11-15T13:27:59;5.30;;;5.00;;
63943;SDS011;50121;51.218;7.664;2022-11-15T13:30:30;5.60;;;5.07;;
63943;SDS011;50121;51.218;7.664;2022-11-15T13:32:58;7.47;;;5.45;;
63943;SDS011;50121;51.218;7.664;2022-11-15T13:35:28;5.93;;;5.43;;
63943;SDS011;50121;51.218;7.664;2022-11-15T13:37:57;5.65;;;5.25;;
63943;SDS011;50121;51.218;7.664;2022-11-15T13:40:39;5.93;;;5.53;;
63943;SDS011;50121;51.218;7.664;2022-11-15T13:43:29;5.82;;;5.20;;
63943;SDS011;50121;51.218;7.664;2022-11-15T13:48:31;5.57;;;5.13;;
63943;SDS011;50121;51.218;7.664;2022-11-15T13:51:04;5.63;;;5.22;;
63943;SDS011;50121;51.218;7.664;2022-11-15T13:53:33;6.43;;;6.00;;
63943;SDS011;50121;51.218;7.664;2022-11-15T13:56:01;7.55;;;6.85;;
63943;SDS011;50121;51.218;7.664;2022-11-15T13:58:30;6.38;;;5.78;;
63943;SDS011;50121;51.218;7.664;2022-11-15T14:01:00;6.45;;;5.95;;
63943;SDS011;50121;51.218;7.664;2022-11-15T14:03:32;5.90;;;5.45;;
63943;SDS011;50121;51.218;7.664;2022-11-15T14:08:33;5.20;;;4.90;;
63943;SDS011;50121;51.218;7.664;2022-11-15T14:11:17;6.32;;;5.30;;
63943;SDS011;50121;51.218;7.664;2022-11-15T14:19:03;7.50;;;6.80;;
63943;SDS011;50121;51.218;7.664;2022-11-15T14:21:30;6.80;;;6.30;;
63943;SDS011;50121;51.218;7.664;2022-11-15T14:24:14;6.50;;;6.00;;
63943;SDS011;50121;51.218;7.664;2022-11-15T14:26:42;6.28;;;5.70;;
63943;SDS011;50121;51.218;7.664;2022-11-15T14:29:25;6.68;;;6.10;;
63943;SDS011;50121;51.218;7.664;2022-11-15T14:31:54;7.30;;;6.28;;
63943;SDS011;50121;51.218;7.664;2022-11-15T14:34:32;7.00;;;6.45;;
63943;SDS011;50121;51.218;7.664;2022-11-15T14:37:00;6.57;;;6.13;;
63943;SDS011;50121;51.218;7.664;2022-11-15T14:39:27;6.40;;;5.88;;
63943;SDS011;50121;51.218;7.664;2022-11-15T14:41:55;6.97;;;6.47;;
63943;SDS011;50121;51.218;7.664;2022-11-15T14:44:22;7.68;;;6.00;;
63943;SDS011;50121;51.218;7.664;2022-11-15T14:46:50;6.43;;;5.93;;
63943;SDS011;50121;51.218;7.664;2022-11-15T14:49:17;6.57;;;6.00;;
63943;SDS011;50121;51.218;7.664;2022-11-15T14:51:45;6.88;;;6.30;;
63943;SDS011;50121;51.218;7.664;2022-11-15T14:54:12;7.10;;;6.50;;
63943;SDS011;50121;51.218;7.664;2022-11-15T14:56:40;7.32;;;6.25;;
63943;SDS011;50121;51.218;7.664;2022-11-15T14:59:09;27.58;;;16.45;;
63943;SDS011;50121;51.218;7.664;2022-11-15T15:01:36;6.55;;;5.95;;
63943;SDS011;50121;51.218;7.664;2022-11-15T15:04:04;6.03;;;5.63;;
63943;SDS011;50121;51.218;7.664;2022-11-15T15:06:31;6.03;;;5.53;;
63943;SDS011;50121;51.218;7.664;2022-11-15T15:08:59;6.05;;;5.60;;
63943;SDS011;50121;51.218;7.664;2022-11-15T15:11:31;6.38;;;5.95;;
63943;SDS011;50121;51.218;7.664;2022-11-15T15:13:59;7.10;;;6.50;;
63943;SDS011;50121;51.218;7.664;2022-11-15T15:16:27;5.70;;;5.30;;
63943;SDS011;50121;51.218;7.664;2022-11-15T15:18:55;5.60;;;5.22;;
63943;SDS011;50121;51.218;7.664;2022-11-15T15:21:23;5.40;;;4.90;;
63943;SDS011;50121;51.218;7.664;2022-11-15T15:23:51;6.50;;;6.10;;
63943;SDS011;50121;51.218;7.664;2022-11-15T15:26:21;6.95;;;5.53;;
63943;SDS011;50121;51.218;7.664;2022-11-15T15:28:49;5.75;;;5.45;;
63943;SDS011;50121;51.218;7.664;2022-11-15T15:31:18;7.15;;;6.53;;
63943;SDS011;50121;51.218;7.664;2022-11-15T15:33:46;6.55;;;6.10;;
63943;SDS011;50121;51.218;7.664;2022-11-15T15:36:14;5.82;;;5.43;;
63943;SDS011;50121;51.218;7.664;2022-11-15T15:38:44;5.50;;;5.10;;
63943;SDS011;50121;51.218;7.664;2022-11-15T15:41:13;4.13;;;3.58;;
63943;SDS011;50121;51.218;7.664;2022-11-15T15:43:41;4.20;;;3.80;;
63943;SDS011;50121;51.218;7.664;2022-11-15T15:46:13;5.90;;;5.40;;
63943;SDS011;50121;51.218;7.664;2022-11-15T15:48:41;6.45;;;5.90;;
63943;SDS011;50121;51.218;7.664;2022-11-15T15:51:09;5.97;;;5.35;;
63943;SDS011;50121;51.218;7.664;2022-11-15T15:53:41;5.18;;;4.78;;
63943;SDS011;50121;51.218;7.664;2022-11-15T15:56:08;5.32;;;4.90;;
63943;SDS011;50121;51.218;7.664;2022-11-15T15:58:36;6.10;;;5.50;;
63943;SDS011;50121;51.218;7.664;2022-11-15T16:01:04;5.80;;;5.40;;
63943;SDS011;50121;51.218;7.664;2022-11-15T16:03:31;4.00;;;3.70;;
63943;SDS011;50121;51.218;7.664;2022-11-15T16:05:59;5.95;;;5.35;;
63943;SDS011;50121;51.218;7.664;2022-11-15T16:08:27;5.90;;;5.50;;
63943;SDS011;50121;51.218;7.664;2022-11-15T16:11:00;5.35;;;4.95;;
63943;SDS011;50121;51.218;7.664;2022-11-15T16:13:30;5.53;;;5.13;;
63943;SDS011;50121;51.218;7.664;2022-11-15T16:15:57;5.47;;;4.70;;
63943;SDS011;50121;51.218;7.664;2022-11-15T16:18:25;5.20;;;4.90;;
63943;SDS011;50121;51.218;7.664;2022-11-15T16:20:52;6.20;;;5.70;;
63943;SDS011;50121;51.218;7.664;2022-11-15T16:23:23;5.95;;;5.45;;
63943;SDS011;50121;51.218;7.664;2022-11-15T16:25:51;6.32;;;5.82;;
63943;SDS011;50121;51.218;7.664;2022-11-15T16:28:20;5.97;;;5.38;;
63943;SDS011;50121;51.218;7.664;2022-11-15T16:30:48;6.20;;;5.80;;
63943;SDS011;50121;51.218;7.664;2022-11-15T16:33:20;5.32;;;4.82;;
63943;SDS011;50121;51.218;7.664;2022-11-15T16:35:48;9.35;;;5.75;;
63943;SDS011;50121;51.218;7.664;2022-11-15T16:38:16;5.63;;;5.22;;
63943;SDS011;50121;51.218;7.664;2022-11-15T16:40:44;6.30;;;5.90;;
63943;SDS011;50121;51.218;7.664;2022-11-15T16:43:12;6.95;;;6.38;;
63943;SDS011;50121;51.218;7.664;2022-11-15T16:45:39;7.10;;;6.60;;
63943;SDS011;50121;51.218;7.664;2022-11-15T16:48:10;6.45;;;5.90;;
63943;SDS011;50121;51.218;7.664;2022-11-15T16:50:45;6.68;;;6.20;;
63943;SDS011;50121;51.218;7.664;2022-11-15T16:53:13;6.75;;;6.25;;
63943;SDS011;50121;51.218;7.664;2022-11-15T16:55:41;6.65;;;6.18;;
63943;SDS011;50121;51.218;7.664;2022-11-15T16:58:08;6.38;;;5.88;;
63943;SDS011;50121;51.218;7.664;2022-11-15T17:00:36;6.80;;;6.22;;
63943;SDS011;50121;51.218;7.664;2022-11-15T17:03:04;6.22;;;5.82;;
63943;SDS011;50121;51.218;7.664;2022-11-15T17:05:31;7.05;;;6.35;;
63943;SDS011;50121;51.218;7.664;2022-11-15T17:07:59;6.15;;;5.75;;
63943;SDS011;50121;51.218;7.664;2022-11-15T17:10:26;5.13;;;4.72;;
63943;SDS011;50121;51.218;7.664;2022-11-15T17:12:54;5.35;;;4.85;;
63943;SDS011;50121;51.218;7.664;2022-11-15T17:15:22;6.30;;;5.90;;
63943;SDS011;50121;51.218;7.664;2022-11-15T17:17:51;5.10;;;4.70;;
63943;SDS011;50121;51.218;7.664;2022-11-15T17:20:19;6.28;;;5.80;;
63943;SDS011;50121;51.218;7.664;2022-11-15T17:22:47;5.13;;;4.72;;
63943;SDS011;50121;51.218;7.664;2022-11-15T17:25:15;5.13;;;4.72;;
63943;SDS011;50121;51.218;7.664;2022-11-15T17:27:43;4.97;;;4.68;;
63943;SDS011;50121;51.218;7.664;2022-11-15T17:30:11;6.55;;;6.03;;
63943;SDS011;50121;51.218;7.664;2022-11-15T17:32:41;6.43;;;5.93;;
63943;SDS011;50121;51.218;7.664;2022-11-15T17:35:09;6.13;;;5.63;;
63943;SDS011;50121;51.218;7.664;2022-11-15T17:37:40;6.68;;;6.18;;
63943;SDS011;50121;51.218;7.664;2022-11-15T17:40:08;6.07;;;5.57;;
63943;SDS011;50121;51.218;7.664;2022-11-15T17:42:36;7.80;;;7.20;;
63943;SDS011;50121;51.218;7.664;2022-11-15T17:45:04;6.28;;;5.78;;
63943;SDS011;50121;51.218;7.664;2022-11-15T17:47:35;7.90;;;6.38;;
63943;SDS011;50121;51.218;7.664;2022-11-15T17:50:02;8.20;;;7.60;;
63943;SDS011;50121;51.218;7.664;2022-11-15T17:52:30;6.20;;;5.70;;
63943;SDS011;50121;51.218;7.664;2022-11-15T17:54:58;7.50;;;6.90;;
63943;SDS011;50121;51.218;7.664;2022-11-15T17:57:25;7.78;;;7.13;;
63943;SDS011;50121;51.218;7.664;2022-11-15T17:59:53;8.15;;;7.55;;
63943;SDS011;50121;51.218;7.664;2022-11-15T18:02:21;8.50;;;7.65;;
63943;SDS011;50121;51.218;7.664;2022-11-15T18:04:48;7.63;;;7.00;;
63943;SDS011;50121;51.218;7.664;2022-11-15T18:07:16;6.88;;;6.28;;